sensor_id;sensor_type;location;lat;lon;timestamp;P1;durP1;ratioP1;P2;durP2;ratioP2
29940;SDS011;16801;53.562;10.038;2023-07-13T00:03:15;2.53;;;1.67;;
29940;SDS011;16801;53.562;10.038;2023-07-13T00:06:36;4.63;;;2.03;;
29940;SDS011;16801;53.562;10.038;2023-07-13T00:09:57;2.88;;;1.75;;
29940;SDS011;16801;53.562;10.038;2023-07-13T00:13:20;2.63;;;2.38;;
29940;SDS011;16801;53.562;10.038;2023-07-13T00:16:41;3.10;;;2.08;;
29940;SDS011;16801;53.562;10.038;2023-07-13T00:20:04;4.15;;;2.20;;
29940;SDS011;16801;53.562;10.038;2023-07-13T00:23:26;3.42;;;2.67;;
29940;SDS011;16801;53.562;10.038;2023-07-13T00:26:47;2.58;;;1.80;;
29940;SDS011;16801;53.562;10.038;2023-07-13T00:30:09;2.95;;;2.22;;
29940;SDS011;16801;53.562;10.038;2023-07-13T00:33:31;2.53;;;1.70;;
29940;SDS011;16801;53.562;10.038;2023-07-13T00:36:52;2.53;;;1.63;;
29940;SDS011;16801;53.562;10.038;2023-07-13T00:40:13;1.77;;;1.67;;
29940;SDS011;16801;53.562;10.038;2023-07-13T00:43:38;2.38;;;2.17;;
29940;SDS011;16801;53.562;10.038;2023-07-13T00:47:00;3.33;;;2.03;;
29940;SDS011;16801;53.562;10.038;2023-07-13T00:50:22;2.67;;;2.05;;
29940;SDS011;16801;53.562;10.038;2023-07-13T00:53:45;2.47;;;1.90;;
29940;SDS011;16801;53.562;10.038;2023-07-13T00:57:07;2.47;;;2.22;;
29940;SDS011;16801;53.562;10.038;2023-07-13T01:00:33;2.67;;;2.22;;
29940;SDS011;16801;53.562;10.038;2023-07-13T01:03:57;1.83;;;1.73;;
29940;SDS011;16801;53.562;10.038;2023-07-13T01:07:18;3.33;;;3.00;;
29940;SDS011;16801;53.562;10.038;2023-07-13T01:10:39;6.93;;;3.08;;
29940;SDS011;16801;53.562;10.038;2023-07-13T01:14:01;4.05;;;2.28;;
29940;SDS011;16801;53.562;10.038;2023-07-13T01:17:23;2.22;;;1.63;;
29940;SDS011;16801;53.562;10.038;2023-07-13T01:20:52;3.28;;;2.15;;
29940;SDS011;16801;53.562;10.038;2023-07-13T01:24:14;5.50;;;3.38;;
29940;SDS011;16801;53.562;10.038;2023-07-13T01:27:35;3.10;;;2.45;;
29940;SDS011;16801;53.562;10.038;2023-07-13T01:30:57;3.40;;;2.72;;
29940;SDS011;16801;53.562;10.038;2023-07-13T01:34:19;3.35;;;2.42;;
29940;SDS011;16801;53.562;10.038;2023-07-13T01:37:42;5.97;;;2.72;;
29940;SDS011;16801;53.562;10.038;2023-07-13T01:41:04;4.18;;;2.40;;
29940;SDS011;16801;53.562;10.038;2023-07-13T01:44:26;2.75;;;2.53;;
29940;SDS011;16801;53.562;10.038;2023-07-13T01:47:47;3.25;;;2.38;;
29940;SDS011;16801;53.562;10.038;2023-07-13T01:51:08;6.43;;;2.92;;
29940;SDS011;16801;53.562;10.038;2023-07-13T01:54:30;3.22;;;2.50;;
29940;SDS011;16801;53.562;10.038;2023-07-13T01:57:53;5.22;;;2.55;;
29940;SDS011;16801;53.562;10.038;2023-07-13T02:01:14;3.75;;;2.53;;
29940;SDS011;16801;53.562;10.038;2023-07-13T02:04:35;3.42;;;2.05;;
29940;SDS011;16801;53.562;10.038;2023-07-13T02:07:56;2.67;;;2.40;;
29940;SDS011;16801;53.562;10.038;2023-07-13T02:11:19;4.13;;;2.80;;
29940;SDS011;16801;53.562;10.038;2023-07-13T02:14:40;3.90;;;2.92;;
29940;SDS011;16801;53.562;10.038;2023-07-13T02:18:02;2.47;;;2.28;;
29940;SDS011;16801;53.562;10.038;2023-07-13T02:21:23;3.72;;;3.03;;
29940;SDS011;16801;53.562;10.038;2023-07-13T02:24:45;3.17;;;2.75;;
29940;SDS011;16801;53.562;10.038;2023-07-13T02:28:07;3.75;;;3.17;;
29940;SDS011;16801;53.562;10.038;2023-07-13T02:31:28;3.53;;;3.22;;
29940;SDS011;16801;53.562;10.038;2023-07-13T02:34:49;8.98;;;3.25;;
29940;SDS011;16801;53.562;10.038;2023-07-13T02:38:10;3.88;;;3.58;;
29940;SDS011;16801;53.562;10.038;2023-07-13T02:41:31;3.20;;;2.90;;
29940;SDS011;16801;53.562;10.038;2023-07-13T02:44:54;5.90;;;3.20;;
29940;SDS011;16801;53.562;10.038;2023-07-13T02:48:14;5.13;;;2.55;;
29940;SDS011;16801;53.562;10.038;2023-07-13T02:51:35;4.35;;;3.00;;
29940;SDS011;16801;53.562;10.038;2023-07-13T02:54:56;6.53;;;3.38;;
29940;SDS011;16801;53.562;10.038;2023-07-13T02:58:18;3.70;;;3.40;;
29940;SDS011;16801;53.562;10.038;2023-07-13T03:01:40;4.43;;;3.13;;
29940;SDS011;16801;53.562;10.038;2023-07-13T03:05:01;5.15;;;2.75;;
29940;SDS011;16801;53.562;10.038;2023-07-13T03:08:23;3.08;;;2.78;;
29940;SDS011;16801;53.562;10.038;2023-07-13T03:11:45;3.73;;;2.47;;
29940;SDS011;16801;53.562;10.038;2023-07-13T03:15:17;3.63;;;3.23;;
29940;SDS011;16801;53.562;10.038;2023-07-13T03:18:41;2.92;;;2.40;;
29940;SDS011;16801;53.562;10.038;2023-07-13T03:22:04;3.57;;;3.20;;
29940;SDS011;16801;53.562;10.038;2023-07-13T03:25:27;4.22;;;2.50;;
29940;SDS011;16801;53.562;10.038;2023-07-13T03:28:48;3.70;;;2.58;;
29940;SDS011;16801;53.562;10.038;2023-07-13T03:32:12;3.42;;;2.80;;
29940;SDS011;16801;53.562;10.038;2023-07-13T03:35:35;3.53;;;3.23;;
29940;SDS011;16801;53.562;10.038;2023-07-13T03:38:56;4.97;;;3.43;;
29940;SDS011;16801;53.562;10.038;2023-07-13T03:42:24;3.40;;;3.10;;
29940;SDS011;16801;53.562;10.038;2023-07-13T03:45:45;4.30;;;2.80;;
29940;SDS011;16801;53.562;10.038;2023-07-13T03:49:06;3.20;;;2.88;;
29940;SDS011;16801;53.562;10.038;2023-07-13T03:52:30;2.63;;;2.43;;
29940;SDS011;16801;53.562;10.038;2023-07-13T03:55:50;3.03;;;2.50;;
29940;SDS011;16801;53.562;10.038;2023-07-13T03:59:11;2.97;;;2.77;;
29940;SDS011;16801;53.562;10.038;2023-07-13T04:02:32;4.37;;;3.97;;
29940;SDS011;16801;53.562;10.038;2023-07-13T04:05:55;2.27;;;2.07;;
29940;SDS011;16801;53.562;10.038;2023-07-13T04:09:20;3.58;;;2.63;;
29940;SDS011;16801;53.562;10.038;2023-07-13T04:12:41;5.63;;;3.45;;
29940;SDS011;16801;53.562;10.038;2023-07-13T04:16:02;4.15;;;2.65;;
29940;SDS011;16801;53.562;10.038;2023-07-13T04:19:23;3.35;;;2.25;;
29940;SDS011;16801;53.562;10.038;2023-07-13T04:22:44;3.42;;;2.97;;
29940;SDS011;16801;53.562;10.038;2023-07-13T04:26:06;8.10;;;2.40;;
29940;SDS011;16801;53.562;10.038;2023-07-13T04:29:27;3.47;;;2.40;;
29940;SDS011;16801;53.562;10.038;2023-07-13T04:32:49;6.00;;;3.53;;
29940;SDS011;16801;53.562;10.038;2023-07-13T04:36:11;5.43;;;2.80;;
29940;SDS011;16801;53.562;10.038;2023-07-13T04:39:32;5.27;;;3.30;;
29940;SDS011;16801;53.562;10.038;2023-07-13T04:42:55;4.40;;;2.37;;
29940;SDS011;16801;53.562;10.038;2023-07-13T04:46:16;2.97;;;2.20;;
29940;SDS011;16801;53.562;10.038;2023-07-13T04:49:38;1.97;;;1.87;;
29940;SDS011;16801;53.562;10.038;2023-07-13T04:53:00;4.70;;;2.57;;
29940;SDS011;16801;53.562;10.038;2023-07-13T04:56:20;3.27;;;2.50;;
29940;SDS011;16801;53.562;10.038;2023-07-13T04:59:42;4.00;;;2.70;;
29940;SDS011;16801;53.562;10.038;2023-07-13T05:03:03;3.70;;;2.70;;
29940;SDS011;16801;53.562;10.038;2023-07-13T05:06:24;3.58;;;2.33;;
29940;SDS011;16801;53.562;10.038;2023-07-13T05:09:45;4.03;;;2.30;;
29940;SDS011;16801;53.562;10.038;2023-07-13T05:13:06;3.35;;;2.85;;
29940;SDS011;16801;53.562;10.038;2023-07-13T05:16:29;12.15;;;3.55;;
29940;SDS011;16801;53.562;10.038;2023-07-13T05:19:51;3.70;;;2.45;;
29940;SDS011;16801;53.562;10.038;2023-07-13T05:23:12;3.43;;;3.00;;
29940;SDS011;16801;53.562;10.038;2023-07-13T05:26:33;6.00;;;2.83;;
29940;SDS011;16801;53.562;10.038;2023-07-13T05:29:53;4.03;;;2.67;;
29940;SDS011;16801;53.562;10.038;2023-07-13T05:33:16;3.63;;;2.75;;
29940;SDS011;16801;53.562;10.038;2023-07-13T05:36:37;3.90;;;3.05;;
29940;SDS011;16801;53.562;10.038;2023-07-13T05:39:58;4.10;;;2.97;;
29940;SDS011;16801;53.562;10.038;2023-07-13T05:43:19;8.48;;;4.20;;
29940;SDS011;16801;53.562;10.038;2023-07-13T05:46:40;3.03;;;2.65;;
29940;SDS011;16801;53.562;10.038;2023-07-13T05:50:02;4.90;;;3.33;;
29940;SDS011;16801;53.562;10.038;2023-07-13T05:53:23;6.70;;;3.35;;
29940;SDS011;16801;53.562;10.038;2023-07-13T05:56:44;8.32;;;2.88;;
29940;SDS011;16801;53.562;10.038;2023-07-13T06:00:05;4.30;;;2.03;;
29940;SDS011;16801;53.562;10.038;2023-07-13T06:03:31;10.43;;;2.85;;
29940;SDS011;16801;53.562;10.038;2023-07-13T06:06:54;4.03;;;2.85;;
29940;SDS011;16801;53.562;10.038;2023-07-13T06:10:14;3.78;;;3.20;;
29940;SDS011;16801;53.562;10.038;2023-07-13T06:13:35;15.45;;;3.85;;
29940;SDS011;16801;53.562;10.038;2023-07-13T06:16:57;10.88;;;4.03;;
29940;SDS011;16801;53.562;10.038;2023-07-13T06:20:17;8.02;;;3.60;;
29940;SDS011;16801;53.562;10.038;2023-07-13T06:23:40;6.60;;;2.60;;
29940;SDS011;16801;53.562;10.038;2023-07-13T06:27:01;3.35;;;2.13;;
29940;SDS011;16801;53.562;10.038;2023-07-13T06:30:22;9.48;;;3.75;;
29940;SDS011;16801;53.562;10.038;2023-07-13T06:33:43;3.78;;;2.50;;
29940;SDS011;16801;53.562;10.038;2023-07-13T06:37:04;14.50;;;4.13;;
29940;SDS011;16801;53.562;10.038;2023-07-13T06:40:27;3.83;;;2.58;;
29940;SDS011;16801;53.562;10.038;2023-07-13T06:43:49;17.52;;;4.05;;
29940;SDS011;16801;53.562;10.038;2023-07-13T06:47:10;6.30;;;2.65;;
29940;SDS011;16801;53.562;10.038;2023-07-13T06:50:31;8.50;;;2.70;;
29940;SDS011;16801;53.562;10.038;2023-07-13T06:53:52;4.95;;;3.58;;
29940;SDS011;16801;53.562;10.038;2023-07-13T06:57:15;12.18;;;3.35;;
29940;SDS011;16801;53.562;10.038;2023-07-13T07:00:35;7.15;;;3.15;;
29940;SDS011;16801;53.562;10.038;2023-07-13T07:03:57;3.90;;;2.70;;
29940;SDS011;16801;53.562;10.038;2023-07-13T07:07:17;6.32;;;2.35;;
29940;SDS011;16801;53.562;10.038;2023-07-13T07:10:38;3.95;;;2.03;;
29940;SDS011;16801;53.562;10.038;2023-07-13T07:14:00;12.35;;;3.90;;
29940;SDS011;16801;53.562;10.038;2023-07-13T07:17:21;3.33;;;2.13;;
29940;SDS011;16801;53.562;10.038;2023-07-13T07:20:42;6.38;;;3.47;;
29940;SDS011;16801;53.562;10.038;2023-07-13T07:24:04;5.47;;;2.83;;
29940;SDS011;16801;53.562;10.038;2023-07-13T07:27:25;3.58;;;2.25;;
29940;SDS011;16801;53.562;10.038;2023-07-13T07:30:47;5.75;;;3.50;;
29940;SDS011;16801;53.562;10.038;2023-07-13T07:34:09;4.65;;;3.08;;
29940;SDS011;16801;53.562;10.038;2023-07-13T07:37:30;5.18;;;2.22;;
29940;SDS011;16801;53.562;10.038;2023-07-13T07:40:50;7.05;;;2.58;;
29940;SDS011;16801;53.562;10.038;2023-07-13T07:44:13;5.80;;;3.00;;
29940;SDS011;16801;53.562;10.038;2023-07-13T07:47:35;4.72;;;3.15;;
29940;SDS011;16801;53.562;10.038;2023-07-13T07:50:56;5.82;;;2.80;;
29940;SDS011;16801;53.562;10.038;2023-07-13T07:54:17;7.43;;;2.33;;
29940;SDS011;16801;53.562;10.038;2023-07-13T07:57:38;7.70;;;2.78;;
29940;SDS011;16801;53.562;10.038;2023-07-13T08:01:02;4.40;;;2.67;;
29940;SDS011;16801;53.562;10.038;2023-07-13T08:04:25;3.70;;;3.35;;
29940;SDS011;16801;53.562;10.038;2023-07-13T08:07:46;6.38;;;2.85;;
29940;SDS011;16801;53.562;10.038;2023-07-13T08:11:07;7.68;;;3.13;;
29940;SDS011;16801;53.562;10.038;2023-07-13T08:14:30;4.35;;;2.40;;
29940;SDS011;16801;53.562;10.038;2023-07-13T08:17:51;4.35;;;2.65;;
29940;SDS011;16801;53.562;10.038;2023-07-13T08:21:13;4.95;;;2.40;;
29940;SDS011;16801;53.562;10.038;2023-07-13T08:24:34;3.33;;;2.22;;
29940;SDS011;16801;53.562;10.038;2023-07-13T08:27:55;3.15;;;2.60;;
29940;SDS011;16801;53.562;10.038;2023-07-13T08:31:16;8.40;;;3.03;;
29940;SDS011;16801;53.562;10.038;2023-07-13T08:34:37;6.00;;;2.97;;
29940;SDS011;16801;53.562;10.038;2023-07-13T08:37:59;3.05;;;2.45;;
29940;SDS011;16801;53.562;10.038;2023-07-13T08:41:20;5.18;;;2.20;;
29940;SDS011;16801;53.562;10.038;2023-07-13T08:44:44;2.83;;;2.50;;
29940;SDS011;16801;53.562;10.038;2023-07-13T08:48:14;3.47;;;2.42;;
29940;SDS011;16801;53.562;10.038;2023-07-13T08:51:41;7.00;;;3.05;;
29940;SDS011;16801;53.562;10.038;2023-07-13T08:55:09;5.85;;;2.97;;
29940;SDS011;16801;53.562;10.038;2023-07-13T08:58:35;7.28;;;3.88;;
29940;SDS011;16801;53.562;10.038;2023-07-13T09:05:45;2.28;;;1.88;;
29940;SDS011;16801;53.562;10.038;2023-07-13T09:09:16;6.88;;;2.20;;
29940;SDS011;16801;53.562;10.038;2023-07-13T09:12:48;4.97;;;2.10;;
29940;SDS011;16801;53.562;10.038;2023-07-13T09:16:18;4.32;;;2.05;;
29940;SDS011;16801;53.562;10.038;2023-07-13T09:19:41;3.63;;;2.45;;
29940;SDS011;16801;53.562;10.038;2023-07-13T09:23:04;4.72;;;3.08;;
29940;SDS011;16801;53.562;10.038;2023-07-13T09:26:28;6.88;;;2.75;;
29940;SDS011;16801;53.562;10.038;2023-07-13T09:29:55;4.25;;;2.58;;
29940;SDS011;16801;53.562;10.038;2023-07-13T09:33:22;2.13;;;1.52;;
29940;SDS011;16801;53.562;10.038;2023-07-13T09:36:44;2.72;;;1.80;;
29940;SDS011;16801;53.562;10.038;2023-07-13T09:40:08;4.22;;;2.33;;
29940;SDS011;16801;53.562;10.038;2023-07-13T09:44:02;4.80;;;1.73;;
29940;SDS011;16801;53.562;10.038;2023-07-13T09:47:31;3.22;;;1.83;;
29940;SDS011;16801;53.562;10.038;2023-07-13T09:50:54;4.35;;;2.28;;
29940;SDS011;16801;53.562;10.038;2023-07-13T09:54:20;10.73;;;2.72;;
29940;SDS011;16801;53.562;10.038;2023-07-13T09:57:46;7.28;;;3.42;;
29940;SDS011;16801;53.562;10.038;2023-07-13T10:01:07;2.15;;;1.92;;
29940;SDS011;16801;53.562;10.038;2023-07-13T10:04:32;2.22;;;1.70;;
29940;SDS011;16801;53.562;10.038;2023-07-13T10:07:55;5.97;;;1.88;;
29940;SDS011;16801;53.562;10.038;2023-07-13T10:11:17;2.65;;;2.40;;
29940;SDS011;16801;53.562;10.038;2023-07-13T10:14:40;3.35;;;2.28;;
29940;SDS011;16801;53.562;10.038;2023-07-13T10:18:02;1.80;;;1.45;;
29940;SDS011;16801;53.562;10.038;2023-07-13T10:21:28;5.13;;;2.25;;
29940;SDS011;16801;53.562;10.038;2023-07-13T10:24:52;2.92;;;2.00;;
29940;SDS011;16801;53.562;10.038;2023-07-13T10:28:19;3.50;;;1.75;;
29940;SDS011;16801;53.562;10.038;2023-07-13T10:31:46;5.50;;;1.83;;
29940;SDS011;16801;53.562;10.038;2023-07-13T10:35:08;2.78;;;2.00;;
29940;SDS011;16801;53.562;10.038;2023-07-13T10:38:33;4.85;;;2.03;;
29940;SDS011;16801;53.562;10.038;2023-07-13T10:41:55;2.42;;;1.70;;
29940;SDS011;16801;53.562;10.038;2023-07-13T10:45:21;7.30;;;2.20;;
29940;SDS011;16801;53.562;10.038;2023-07-13T10:48:43;2.95;;;1.92;;
29940;SDS011;16801;53.562;10.038;2023-07-13T10:52:20;1.35;;;1.27;;
29940;SDS011;16801;53.562;10.038;2023-07-13T10:56:19;5.05;;;2.05;;
29940;SDS011;16801;53.562;10.038;2023-07-13T10:59:46;2.90;;;1.75;;
29940;SDS011;16801;53.562;10.038;2023-07-13T11:03:10;8.70;;;1.95;;
29940;SDS011;16801;53.562;10.038;2023-07-13T11:06:37;5.10;;;2.13;;
29940;SDS011;16801;53.562;10.038;2023-07-13T11:10:03;3.90;;;2.10;;
29940;SDS011;16801;53.562;10.038;2023-07-13T11:13:35;2.08;;;1.70;;
29940;SDS011;16801;53.562;10.038;2023-07-13T11:16:58;5.57;;;2.33;;
29940;SDS011;16801;53.562;10.038;2023-07-13T11:24:01;3.67;;;1.85;;
29940;SDS011;16801;53.562;10.038;2023-07-13T11:27:33;1.77;;;1.63;;
29940;SDS011;16801;53.562;10.038;2023-07-13T11:31:04;3.65;;;1.52;;
29940;SDS011;16801;53.562;10.038;2023-07-13T11:34:36;2.13;;;1.70;;
29940;SDS011;16801;53.562;10.038;2023-07-13T11:37:59;1.55;;;1.42;;
29940;SDS011;16801;53.562;10.038;2023-07-13T11:41:21;4.22;;;1.70;;
29940;SDS011;16801;53.562;10.038;2023-07-13T11:44:45;3.13;;;1.92;;
29940;SDS011;16801;53.562;10.038;2023-07-13T11:48:17;2.03;;;1.83;;
29940;SDS011;16801;53.562;10.038;2023-07-13T11:51:40;3.90;;;1.77;;
29940;SDS011;16801;53.562;10.038;2023-07-13T11:55:02;2.15;;;1.40;;
29940;SDS011;16801;53.562;10.038;2023-07-13T11:58:33;3.15;;;1.50;;
29940;SDS011;16801;53.562;10.038;2023-07-13T12:01:55;2.75;;;1.50;;
29940;SDS011;16801;53.562;10.038;2023-07-13T12:05:19;5.93;;;2.45;;
29940;SDS011;16801;53.562;10.038;2023-07-13T12:08:40;2.80;;;1.40;;
29940;SDS011;16801;53.562;10.038;2023-07-13T12:12:01;4.22;;;1.88;;
29940;SDS011;16801;53.562;10.038;2023-07-13T12:15:22;2.42;;;1.63;;
29940;SDS011;16801;53.562;10.038;2023-07-13T12:18:48;2.13;;;1.67;;
29940;SDS011;16801;53.562;10.038;2023-07-13T12:22:12;1.88;;;1.50;;
29940;SDS011;16801;53.562;10.038;2023-07-13T12:25:37;2.38;;;1.50;;
29940;SDS011;16801;53.562;10.038;2023-07-13T12:28:58;2.95;;;1.58;;
29940;SDS011;16801;53.562;10.038;2023-07-13T12:32:21;3.28;;;1.92;;
29940;SDS011;16801;53.562;10.038;2023-07-13T12:35:44;3.25;;;1.60;;
29940;SDS011;16801;53.562;10.038;2023-07-13T12:39:12;2.60;;;1.27;;
29940;SDS011;16801;53.562;10.038;2023-07-13T12:42:36;2.67;;;1.42;;
29940;SDS011;16801;53.562;10.038;2023-07-13T12:46:01;3.00;;;1.85;;
29940;SDS011;16801;53.562;10.038;2023-07-13T12:49:26;1.85;;;1.70;;
29940;SDS011;16801;53.562;10.038;2023-07-13T12:52:51;3.47;;;2.00;;
29940;SDS011;16801;53.562;10.038;2023-07-13T12:56:17;1.73;;;1.05;;
29940;SDS011;16801;53.562;10.038;2023-07-13T12:59:40;1.35;;;1.25;;
29940;SDS011;16801;53.562;10.038;2023-07-13T13:03:04;3.80;;;1.90;;
29940;SDS011;16801;53.562;10.038;2023-07-13T13:06:28;3.30;;;1.35;;
29940;SDS011;16801;53.562;10.038;2023-07-13T13:09:50;1.70;;;1.60;;
29940;SDS011;16801;53.562;10.038;2023-07-13T13:13:13;2.90;;;2.47;;
29940;SDS011;16801;53.562;10.038;2023-07-13T13:20:18;1.83;;;1.30;;
29940;SDS011;16801;53.562;10.038;2023-07-13T13:23:40;1.38;;;1.20;;
29940;SDS011;16801;53.562;10.038;2023-07-13T13:27:04;3.60;;;1.42;;
29940;SDS011;16801;53.562;10.038;2023-07-13T13:30:25;1.83;;;1.45;;
29940;SDS011;16801;53.562;10.038;2023-07-13T13:33:46;2.97;;;1.40;;
29940;SDS011;16801;53.562;10.038;2023-07-13T13:37:11;1.40;;;1.27;;
29940;SDS011;16801;53.562;10.038;2023-07-13T13:40:38;1.90;;;1.40;;
29940;SDS011;16801;53.562;10.038;2023-07-13T13:44:00;3.10;;;1.35;;
29940;SDS011;16801;53.562;10.038;2023-07-13T13:47:27;2.33;;;1.80;;
29940;SDS011;16801;53.562;10.038;2023-07-13T13:50:52;1.48;;;1.35;;
29940;SDS011;16801;53.562;10.038;2023-07-13T13:54:13;3.15;;;1.80;;
29940;SDS011;16801;53.562;10.038;2023-07-13T13:57:35;1.45;;;1.25;;
29940;SDS011;16801;53.562;10.038;2023-07-13T14:00:58;1.92;;;1.58;;
29940;SDS011;16801;53.562;10.038;2023-07-13T14:04:20;1.27;;;0.90;;
29940;SDS011;16801;53.562;10.038;2023-07-13T14:07:42;1.83;;;1.40;;
29940;SDS011;16801;53.562;10.038;2023-07-13T14:11:03;2.60;;;1.65;;
29940;SDS011;16801;53.562;10.038;2023-07-13T14:14:24;2.65;;;1.77;;
29940;SDS011;16801;53.562;10.038;2023-07-13T14:17:47;2.97;;;1.77;;
29940;SDS011;16801;53.562;10.038;2023-07-13T14:21:11;1.77;;;1.20;;
29940;SDS011;16801;53.562;10.038;2023-07-13T14:24:34;4.57;;;1.63;;
29940;SDS011;16801;53.562;10.038;2023-07-13T14:27:56;5.63;;;2.80;;
29940;SDS011;16801;53.562;10.038;2023-07-13T14:31:21;9.98;;;2.92;;
29940;SDS011;16801;53.562;10.038;2023-07-13T14:34:44;3.13;;;1.73;;
29940;SDS011;16801;53.562;10.038;2023-07-13T14:38:07;1.77;;;1.65;;
29940;SDS011;16801;53.562;10.038;2023-07-13T14:41:30;2.33;;;2.13;;
29940;SDS011;16801;53.562;10.038;2023-07-13T14:44:52;3.67;;;2.53;;
29940;SDS011;16801;53.562;10.038;2023-07-13T14:48:15;1.67;;;1.58;;
29940;SDS011;16801;53.562;10.038;2023-07-13T14:51:39;3.33;;;1.90;;
29940;SDS011;16801;53.562;10.038;2023-07-13T14:55:00;2.13;;;1.92;;
29940;SDS011;16801;53.562;10.038;2023-07-13T14:58:21;1.63;;;1.30;;
29940;SDS011;16801;53.562;10.038;2023-07-13T15:01:42;1.83;;;1.50;;
29940;SDS011;16801;53.562;10.038;2023-07-13T15:05:05;2.53;;;1.58;;
29940;SDS011;16801;53.562;10.038;2023-07-13T15:08:34;1.50;;;1.33;;
29940;SDS011;16801;53.562;10.038;2023-07-13T15:11:55;2.45;;;1.40;;
29940;SDS011;16801;53.562;10.038;2023-07-13T15:15:16;1.77;;;1.33;;
29940;SDS011;16801;53.562;10.038;2023-07-13T15:18:37;4.22;;;1.50;;
29940;SDS011;16801;53.562;10.038;2023-07-13T15:21:59;3.78;;;2.13;;
29940;SDS011;16801;53.562;10.038;2023-07-13T15:25:22;3.75;;;2.55;;
29940;SDS011;16801;53.562;10.038;2023-07-13T15:28:45;1.35;;;1.25;;
29940;SDS011;16801;53.562;10.038;2023-07-13T15:32:08;1.85;;;1.58;;
29940;SDS011;16801;53.562;10.038;2023-07-13T15:35:33;2.05;;;1.83;;
29940;SDS011;16801;53.562;10.038;2023-07-13T15:38:54;1.90;;;1.73;;
29940;SDS011;16801;53.562;10.038;2023-07-13T15:42:18;1.30;;;1.20;;
29940;SDS011;16801;53.562;10.038;2023-07-13T15:45:40;1.33;;;1.20;;
29940;SDS011;16801;53.562;10.038;2023-07-13T15:49:04;2.03;;;1.63;;
29940;SDS011;16801;53.562;10.038;2023-07-13T15:52:29;1.92;;;1.75;;
29940;SDS011;16801;53.562;10.038;2023-07-13T15:55:52;1.58;;;1.48;;
29940;SDS011;16801;53.562;10.038;2023-07-13T15:59:14;1.60;;;1.50;;
29940;SDS011;16801;53.562;10.038;2023-07-13T16:02:35;2.45;;;1.27;;
29940;SDS011;16801;53.562;10.038;2023-07-13T16:05:55;1.85;;;1.33;;
29940;SDS011;16801;53.562;10.038;2023-07-13T16:09:18;2.17;;;1.60;;
29940;SDS011;16801;53.562;10.038;2023-07-13T16:12:41;2.35;;;1.23;;
29940;SDS011;16801;53.562;10.038;2023-07-13T16:16:06;3.97;;;1.70;;
29940;SDS011;16801;53.562;10.038;2023-07-13T16:19:29;1.10;;;1.00;;
29940;SDS011;16801;53.562;10.038;2023-07-13T16:22:50;1.40;;;1.30;;
29940;SDS011;16801;53.562;10.038;2023-07-13T16:26:26;2.25;;;1.52;;
29940;SDS011;16801;53.562;10.038;2023-07-13T16:29:58;3.05;;;1.38;;
29940;SDS011;16801;53.562;10.038;2023-07-13T16:33:20;1.20;;;0.80;;
29940;SDS011;16801;53.562;10.038;2023-07-13T16:36:41;0.85;;;0.80;;
29940;SDS011;16801;53.562;10.038;2023-07-13T16:40:05;2.35;;;1.40;;
29940;SDS011;16801;53.562;10.038;2023-07-13T16:43:41;1.65;;;1.55;;
29940;SDS011;16801;53.562;10.038;2023-07-13T16:47:05;1.58;;;1.17;;
29940;SDS011;16801;53.562;10.038;2023-07-13T16:50:32;1.40;;;1.30;;
29940;SDS011;16801;53.562;10.038;2023-07-13T16:53:53;2.45;;;1.58;;
29940;SDS011;16801;53.562;10.038;2023-07-13T16:57:15;1.30;;;0.88;;
29940;SDS011;16801;53.562;10.038;2023-07-13T17:00:38;1.13;;;1.02;;
29940;SDS011;16801;53.562;10.038;2023-07-13T17:04:01;1.30;;;1.10;;
29940;SDS011;16801;53.562;10.038;2023-07-13T17:07:24;1.55;;;1.25;;
29940;SDS011;16801;53.562;10.038;2023-07-13T17:10:46;1.75;;;1.10;;
29940;SDS011;16801;53.562;10.038;2023-07-13T17:14:12;5.00;;;1.67;;
29940;SDS011;16801;53.562;10.038;2023-07-13T17:17:38;1.52;;;1.25;;
29940;SDS011;16801;53.562;10.038;2023-07-13T17:21:02;4.47;;;2.40;;
29940;SDS011;16801;53.562;10.038;2023-07-13T17:24:26;1.52;;;1.38;;
29940;SDS011;16801;53.562;10.038;2023-07-13T17:27:49;1.20;;;0.82;;
29940;SDS011;16801;53.562;10.038;2023-07-13T17:31:10;3.80;;;1.30;;
29940;SDS011;16801;53.562;10.038;2023-07-13T17:34:38;4.68;;;1.83;;
29940;SDS011;16801;53.562;10.038;2023-07-13T17:38:04;2.08;;;0.75;;
29940;SDS011;16801;53.562;10.038;2023-07-13T17:41:26;4.72;;;1.75;;
29940;SDS011;16801;53.562;10.038;2023-07-13T17:44:47;7.72;;;2.05;;
29940;SDS011;16801;53.562;10.038;2023-07-13T17:48:08;1.48;;;1.33;;
29940;SDS011;16801;53.562;10.038;2023-07-13T17:51:31;2.25;;;1.25;;
29940;SDS011;16801;53.562;10.038;2023-07-13T17:54:52;1.52;;;1.10;;
29940;SDS011;16801;53.562;10.038;2023-07-13T17:58:14;1.27;;;1.17;;
29940;SDS011;16801;53.562;10.038;2023-07-13T18:01:35;1.77;;;1.40;;
29940;SDS011;16801;53.562;10.038;2023-07-13T18:05:00;2.33;;;1.30;;
29940;SDS011;16801;53.562;10.038;2023-07-13T18:08:28;1.38;;;1.27;;
29940;SDS011;16801;53.562;10.038;2023-07-13T18:11:50;2.03;;;1.02;;
29940;SDS011;16801;53.562;10.038;2023-07-13T18:15:13;1.70;;;1.15;;
29940;SDS011;16801;53.562;10.038;2023-07-13T18:18:34;1.17;;;1.00;;
29940;SDS011;16801;53.562;10.038;2023-07-13T18:21:55;1.23;;;1.10;;
29940;SDS011;16801;53.562;10.038;2023-07-13T18:25:16;1.23;;;1.10;;
29940;SDS011;16801;53.562;10.038;2023-07-13T18:28:39;2.42;;;1.30;;
29940;SDS011;16801;53.562;10.038;2023-07-13T18:32:01;5.15;;;1.48;;
29940;SDS011;16801;53.562;10.038;2023-07-13T18:35:25;2.83;;;1.25;;
29940;SDS011;16801;53.562;10.038;2023-07-13T18:38:48;2.20;;;1.73;;
29940;SDS011;16801;53.562;10.038;2023-07-13T18:42:10;4.72;;;1.55;;
29940;SDS011;16801;53.562;10.038;2023-07-13T18:45:30;1.60;;;1.50;;
29940;SDS011;16801;53.562;10.038;2023-07-13T18:48:53;1.83;;;0.93;;
29940;SDS011;16801;53.562;10.038;2023-07-13T18:52:16;2.17;;;1.50;;
29940;SDS011;16801;53.562;10.038;2023-07-13T18:55:38;1.98;;;1.42;;
29940;SDS011;16801;53.562;10.038;2023-07-13T18:58:59;1.55;;;1.08;;
29940;SDS011;16801;53.562;10.038;2023-07-13T19:02:20;2.80;;;1.20;;
29940;SDS011;16801;53.562;10.038;2023-07-13T19:05:43;1.65;;;1.55;;
29940;SDS011;16801;53.562;10.038;2023-07-13T19:09:07;3.50;;;1.55;;
29940;SDS011;16801;53.562;10.038;2023-07-13T19:12:30;2.20;;;1.95;;
29940;SDS011;16801;53.562;10.038;2023-07-13T19:15:52;2.20;;;1.70;;
29940;SDS011;16801;53.562;10.038;2023-07-13T19:19:13;2.83;;;2.45;;
29940;SDS011;16801;53.562;10.038;2023-07-13T19:22:36;2.45;;;1.33;;
29940;SDS011;16801;53.562;10.038;2023-07-13T19:25:57;2.22;;;1.80;;
29940;SDS011;16801;53.562;10.038;2023-07-13T19:29:23;2.78;;;1.52;;
29940;SDS011;16801;53.562;10.038;2023-07-13T19:32:45;1.85;;;1.67;;
29940;SDS011;16801;53.562;10.038;2023-07-13T19:36:08;2.40;;;2.03;;
29940;SDS011;16801;53.562;10.038;2023-07-13T19:39:33;7.43;;;3.47;;
29940;SDS011;16801;53.562;10.038;2023-07-13T19:42:58;3.28;;;2.63;;
29940;SDS011;16801;53.562;10.038;2023-07-13T19:46:20;3.50;;;2.38;;
29940;SDS011;16801;53.562;10.038;2023-07-13T19:49:45;2.08;;;1.98;;
29940;SDS011;16801;53.562;10.038;2023-07-13T19:53:08;3.33;;;3.05;;
29940;SDS011;16801;53.562;10.038;2023-07-13T19:56:38;3.28;;;2.97;;
29940;SDS011;16801;53.562;10.038;2023-07-13T19:59:59;2.65;;;2.38;;
29940;SDS011;16801;53.562;10.038;2023-07-13T20:03:21;2.45;;;2.20;;
29940;SDS011;16801;53.562;10.038;2023-07-13T20:06:42;2.13;;;1.60;;
29940;SDS011;16801;53.562;10.038;2023-07-13T20:10:06;2.97;;;2.10;;
29940;SDS011;16801;53.562;10.038;2023-07-13T20:13:42;2.05;;;1.65;;
29940;SDS011;16801;53.562;10.038;2023-07-13T20:17:03;2.75;;;1.23;;